KABQ/ABQ METAR and TAF weather

Enter ICAO airport designator
Station Type Date Time Source
KABQ METAR 2018/06/25 01:52 UTC NOAA

KABQ 250152Z 30013KT 10SM SCT160 33/M02 A2992 RMK AO2 SLP027 T03331022


Station Type Date Time Source
KABQ Decoded METAR 2018/06/25 01:52 UTC NOAA

ALBUQUERQUE INTERNATIONAL AIRPORT, NM, United States (KABQ) 35-02N 106-36W 1618M
Jun 24, 2018 - 09:52 PM EDT / 2018.06.25 0152 UTC
Wind: from the WNW (300 degrees) at 15 MPH (13 KT):0
Visibility: 10 mile(s):0
Sky conditions: partly cloudy
Temperature: 91.9 F (33.3 C)
Dew Point: 28.0 F (-2.2 C)
Relative Humidity: 10%
Pressure (altimeter): 29.92 in. Hg (1013 hPa)
ob: KABQ 250152Z 30013KT 10SM SCT160 33/M02 A2992 RMK AO2 SLP027 T03331022
cycle: 2

Station Type Date Time Source
KABQ TAF 2018/06/24 18:24 UTC NOAA

TAF KABQ 241722Z 2418/2518 24008KT P6SM SKC
FM241900 28012G20KT P6SM SKC
FM250100 31012G20KT P6SM FEW120
FM250400 35010KT P6SM FEW120
FM250700 09012KT P6SM SKC
FM251100 09014G26KT P6SM FEW100
FM251700 14010KT P6SM SKC


Example: see airport list